createdAt,value
2023-01-12T00:01:59.260Z,8.40
2023-01-12T00:04:26.849Z,6.50
2023-01-12T00:06:54.832Z,5.47
2023-01-12T00:09:22.404Z,8.10
2023-01-12T00:11:49.986Z,5.00
2023-01-12T00:14:17.947Z,9.52
2023-01-12T00:16:45.545Z,6.43
2023-01-12T00:19:16.399Z,5.50
2023-01-12T00:21:56.257Z,5.28
2023-01-12T00:24:25.508Z,10.82
2023-01-12T00:26:53.789Z,7.03
2023-01-12T00:29:21.944Z,7.18
2023-01-12T00:31:49.497Z,2.53
2023-01-12T00:34:18.592Z,4.35
2023-01-12T00:36:47.502Z,5.35
2023-01-12T00:39:15.838Z,7.28
2023-01-12T00:42:01.375Z,6.10
2023-01-12T00:44:46.811Z,3.95
2023-01-12T00:47:15.847Z,9.85
2023-01-12T00:49:45.370Z,8.68
2023-01-12T00:52:25.034Z,5.13
2023-01-12T00:54:57.422Z,7.43
2023-01-12T00:57:25.022Z,8.65
2023-01-12T00:59:54.974Z,7.85
2023-01-12T01:02:23.007Z,7.97
2023-01-12T01:04:52.071Z,8.45
2023-01-12T01:07:21.394Z,10.23
2023-01-12T01:09:49.248Z,4.78
2023-01-12T01:12:17.090Z,7.63
2023-01-12T01:14:44.759Z,8.00
2023-01-12T01:17:12.309Z,6.13
2023-01-12T01:19:39.897Z,7.47
2023-01-12T01:22:08.771Z,10.00
2023-01-12T01:24:36.313Z,11.43
2023-01-12T01:27:04.005Z,5.78
2023-01-12T01:29:31.604Z,9.23
2023-01-12T01:31:59.154Z,4.82
2023-01-12T01:34:26.879Z,5.25
2023-01-12T01:36:54.452Z,6.97
2023-01-12T01:39:23.385Z,5.78
2023-01-12T01:41:50.976Z,7.90
2023-01-12T01:44:51.190Z,8.40
2023-01-12T01:47:26.868Z,6.40
2023-01-12T01:49:57.758Z,9.05
2023-01-12T01:52:29.786Z,7.55
2023-01-12T01:55:02.508Z,4.60
2023-01-12T01:57:35.481Z,6.40
2023-01-12T02:00:04.551Z,8.32
2023-01-12T02:02:33.281Z,5.28
2023-01-12T02:05:01.657Z,5.03
2023-01-12T02:07:29.286Z,7.05
2023-01-12T02:09:58.188Z,7.72
2023-01-12T02:12:43.391Z,3.50
2023-01-12T02:15:29.154Z,7.65
2023-01-12T02:18:10.729Z,7.47
2023-01-12T02:20:56.192Z,3.80
2023-01-12T02:23:50.422Z,6.03
2023-01-12T02:26:49.695Z,7.15
2023-01-12T02:30:01.951Z,5.72
2023-01-12T02:32:36.785Z,4.97
2023-01-12T02:35:16.514Z,6.68
2023-01-12T02:37:48.458Z,8.95
2023-01-12T02:40:22.620Z,9.27
2023-01-12T02:42:57.818Z,7.07
2023-01-12T02:45:36.368Z,4.07
2023-01-12T02:48:12.937Z,4.40
2023-01-12T02:50:48.346Z,10.70
2023-01-12T02:53:20.132Z,8.30
2023-01-12T02:55:48.695Z,5.47
2023-01-12T02:58:21.227Z,7.07
2023-01-12T03:00:52.330Z,7.50
2023-01-12T03:03:22.303Z,8.95
2023-01-12T03:05:51.791Z,9.80
2023-01-12T03:08:23.597Z,4.07
2023-01-12T03:11:07.106Z,7.88
2023-01-12T03:13:38.002Z,6.30
2023-01-12T03:16:07.340Z,7.40
2023-01-12T03:18:42.333Z,6.25
2023-01-12T03:21:14.340Z,5.75
2023-01-12T03:23:46.201Z,5.63
2023-01-12T03:26:16.674Z,6.63
2023-01-12T03:28:49.873Z,8.93
2023-01-12T03:31:17.462Z,5.65
2023-01-12T03:33:46.809Z,5.53
2023-01-12T03:36:24.956Z,6.03
2023-01-12T03:39:05.970Z,7.35
2023-01-12T03:41:46.697Z,5.85
2023-01-12T03:44:21.460Z,5.55
2023-01-12T03:46:56.260Z,7.45
2023-01-12T03:49:32.893Z,6.05
2023-01-12T03:52:03.101Z,9.90
2023-01-12T03:54:33.374Z,5.45
2023-01-12T03:57:02.585Z,6.78
2023-01-12T03:59:30.356Z,8.38
2023-01-12T04:01:58.022Z,4.07
2023-01-12T04:04:26.987Z,7.30
2023-01-12T04:06:54.489Z,14.05
2023-01-12T04:09:22.842Z,8.43
2023-01-12T04:12:07.888Z,7.30
2023-01-12T04:14:35.552Z,6.72
2023-01-12T04:17:03.198Z,8.45
2023-01-12T04:19:32.222Z,9.38
2023-01-12T04:22:17.560Z,6.97
2023-01-12T04:24:45.133Z,4.60
2023-01-12T04:27:12.809Z,7.95
2023-01-12T04:29:40.380Z,6.95
2023-01-12T04:32:08.243Z,6.22
2023-01-12T04:34:39.029Z,7.38
2023-01-12T04:37:06.665Z,6.90
2023-01-12T04:39:34.221Z,6.00
2023-01-12T04:42:01.727Z,7.63
2023-01-12T04:44:29.364Z,6.35
2023-01-12T04:46:56.916Z,10.77
2023-01-12T04:49:24.463Z,8.95
2023-01-12T04:51:53.301Z,9.75
2023-01-12T04:54:20.898Z,8.20
2023-01-12T04:56:48.551Z,6.38
2023-01-12T04:59:16.348Z,5.45
2023-01-12T05:01:43.952Z,4.43
2023-01-12T05:04:11.738Z,5.57
2023-01-12T05:06:39.300Z,7.72
2023-01-12T05:09:27.355Z,6.32
2023-01-12T05:11:54.942Z,7.75
2023-01-12T05:14:22.527Z,7.55
2023-01-12T05:16:50.075Z,9.63
2023-01-12T05:19:17.699Z,8.07
2023-01-12T05:21:45.194Z,7.85
2023-01-12T05:24:14.090Z,5.80
2023-01-12T05:26:41.633Z,4.55
2023-01-12T05:29:09.352Z,4.55
2023-01-12T05:31:36.909Z,6.63
2023-01-12T05:34:04.518Z,6.30
2023-01-12T05:36:32.098Z,6.93
2023-01-12T05:38:59.726Z,4.55
2023-01-12T05:41:28.663Z,11.60
2023-01-12T05:43:55.300Z,5.75
2023-01-12T05:46:24.574Z,10.90
2023-01-12T05:48:53.639Z,6.30
2023-01-12T05:51:22.290Z,6.05
2023-01-12T05:53:49.961Z,4.20
2023-01-12T05:56:21.099Z,8.25
2023-01-12T05:58:54.137Z,8.50
2023-01-12T06:01:22.636Z,12.10
2023-01-12T06:03:50.805Z,7.38
2023-01-12T06:06:18.830Z,7.75
2023-01-12T06:08:46.748Z,4.75
2023-01-12T06:11:29.100Z,11.82
2023-01-12T06:13:58.178Z,7.32
2023-01-12T06:16:26.520Z,6.00
2023-01-12T06:18:54.097Z,6.97
2023-01-12T06:21:21.800Z,7.78
2023-01-12T06:23:49.400Z,5.03
2023-01-12T06:26:17.062Z,5.55
2023-01-12T06:28:44.638Z,11.68
2023-01-12T06:31:14.688Z,5.75
2023-01-12T06:33:42.411Z,8.30
2023-01-12T06:36:11.129Z,3.88
2023-01-12T06:38:38.900Z,6.70
2023-01-12T06:41:08.559Z,5.40
2023-01-12T06:43:36.125Z,6.60
2023-01-12T06:46:03.802Z,4.97
2023-01-12T06:48:38.807Z,7.93
2023-01-12T06:51:07.323Z,4.95
2023-01-12T06:53:34.917Z,7.68
2023-01-12T06:56:02.533Z,4.50
2023-01-12T06:58:30.053Z,3.80
2023-01-12T07:01:01.726Z,8.02
2023-01-12T07:03:29.347Z,6.22
2023-01-12T07:06:00.280Z,3.90
2023-01-12T07:08:28.589Z,4.35
2023-01-12T07:10:56.502Z,4.38
2023-01-12T07:13:24.027Z,5.55
2023-01-12T07:15:52.522Z,4.40
2023-01-12T07:18:20.088Z,4.13
2023-01-12T07:20:48.581Z,3.13
2023-01-12T07:23:17.420Z,3.95
2023-01-12T07:25:44.987Z,3.17
2023-01-12T07:28:12.704Z,8.25
2023-01-12T07:30:40.297Z,9.40
2023-01-12T07:33:09.020Z,5.68
2023-01-12T07:35:36.652Z,2.38
2023-01-12T07:38:04.182Z,3.63
2023-01-12T07:40:33.157Z,3.15
2023-01-12T07:43:01.214Z,3.38
2023-01-12T07:45:30.012Z,7.00
2023-01-12T07:47:58.392Z,4.28
2023-01-12T07:50:28.194Z,3.35
2023-01-12T07:52:55.891Z,5.30
2023-01-12T07:55:23.547Z,6.03
2023-01-12T07:57:59.905Z,5.03
2023-01-12T08:00:29.598Z,1.63
2023-01-12T08:03:05.552Z,4.53
2023-01-12T08:05:33.245Z,4.53
2023-01-12T08:08:03.268Z,4.70
2023-01-12T08:10:31.380Z,4.63
2023-01-12T08:13:00.322Z,4.20
2023-01-12T08:15:29.731Z,3.58
2023-01-12T08:18:05.980Z,2.85
2023-01-12T08:20:35.752Z,2.55
2023-01-12T08:23:08.376Z,4.88
2023-01-12T08:25:44.375Z,6.90
2023-01-12T08:28:18.328Z,6.88
2023-01-12T08:30:47.927Z,6.13
2023-01-12T08:33:16.009Z,6.20
2023-01-12T08:35:44.251Z,5.82
2023-01-12T08:38:13.347Z,4.95
2023-01-12T08:40:58.652Z,6.28
2023-01-12T08:43:45.251Z,6.38
2023-01-12T08:46:13.040Z,4.20
2023-01-12T08:48:40.804Z,2.97
2023-01-12T08:51:09.732Z,7.18
2023-01-12T08:53:37.371Z,4.50
2023-01-12T08:56:05.380Z,6.55
2023-01-12T08:58:34.898Z,6.60
2023-01-12T09:01:08.621Z,5.47
2023-01-12T09:03:36.306Z,5.47
2023-01-12T09:06:10.372Z,8.90
2023-01-12T09:08:38.007Z,5.03
2023-01-12T09:11:06.882Z,5.13
2023-01-12T09:13:36.155Z,5.97
2023-01-12T09:16:12.307Z,3.70
2023-01-12T09:18:40.688Z,8.05
2023-01-12T09:21:10.227Z,3.53
2023-01-12T09:23:38.048Z,6.28
2023-01-12T09:26:07.966Z,5.82
2023-01-12T09:28:37.545Z,4.45
2023-01-12T09:31:07.455Z,7.50
2023-01-12T09:33:35.797Z,4.28
2023-01-12T09:36:05.054Z,5.90
2023-01-12T09:38:33.446Z,4.18
2023-01-12T09:41:03.237Z,5.95
2023-01-12T09:43:48.343Z,3.05
2023-01-12T09:46:39.056Z,2.78
2023-01-12T09:49:07.593Z,7.82
2023-01-12T09:51:37.575Z,4.00
2023-01-12T09:54:06.489Z,3.38
2023-01-12T09:56:39.987Z,3.60
2023-01-12T09:59:26.797Z,4.50
2023-01-12T10:01:57.008Z,3.60
2023-01-12T10:04:25.234Z,4.82
2023-01-12T10:06:53.008Z,4.43
2023-01-12T10:09:22.252Z,4.45
2023-01-12T10:11:58.214Z,5.53
2023-01-12T10:14:43.165Z,6.10
2023-01-12T10:17:42.029Z,2.53
2023-01-12T10:20:18.934Z,3.70
2023-01-12T10:22:50.733Z,4.53
2023-01-12T10:25:26.676Z,2.85
2023-01-12T10:27:56.684Z,3.53
2023-01-12T10:30:29.878Z,2.92
2023-01-12T10:32:58.918Z,3.78
2023-01-12T10:35:27.047Z,4.68
2023-01-12T10:37:56.431Z,5.80
2023-01-12T10:40:27.845Z,7.55
2023-01-12T10:43:23.788Z,3.85
2023-01-12T10:46:06.162Z,3.33
2023-01-12T10:48:35.215Z,6.45
2023-01-12T10:51:05.167Z,3.22
2023-01-12T10:53:41.824Z,2.70
2023-01-12T10:56:15.652Z,2.10
2023-01-12T10:58:47.600Z,1.85
2023-01-12T11:01:15.803Z,5.70
2023-01-12T11:03:44.947Z,3.03
2023-01-12T11:06:27.029Z,1.90
2023-01-12T11:08:55.816Z,2.53
2023-01-12T11:11:31.240Z,1.83
2023-01-12T11:14:00.543Z,4.82
2023-01-12T11:16:33.722Z,1.02
2023-01-12T11:19:16.574Z,2.40
2023-01-12T11:21:49.900Z,3.30
2023-01-12T11:24:36.486Z,4.82
2023-01-12T11:27:12.463Z,2.53
2023-01-12T11:29:45.955Z,1.45
2023-01-12T11:32:19.007Z,3.25
2023-01-12T11:34:56.845Z,3.58
2023-01-12T11:37:24.680Z,2.72
2023-01-12T11:40:02.168Z,1.38
2023-01-12T11:42:49.468Z,0.88
2023-01-12T11:45:23.147Z,1.30
2023-01-12T11:47:55.805Z,1.77
2023-01-12T11:50:29.353Z,2.20
2023-01-12T11:52:57.901Z,3.58
2023-01-12T11:55:49.923Z,0.75
2023-01-12T11:58:27.338Z,1.67
2023-01-12T12:01:05.432Z,2.90
2023-01-12T12:03:57.308Z,1.35
2023-01-12T12:06:41.963Z,0.98
2023-01-12T12:09:34.842Z,1.45
2023-01-12T12:12:08.358Z,1.80
2023-01-12T12:14:51.873Z,0.73
2023-01-12T12:17:24.731Z,2.85
2023-01-12T12:20:03.983Z,0.60
2023-01-12T12:22:51.134Z,2.83
2023-01-12T12:25:28.798Z,1.15
2023-01-12T12:28:15.899Z,1.38
2023-01-12T12:30:59.135Z,1.65
2023-01-12T12:33:47.291Z,1.20
2023-01-12T12:36:19.815Z,1.05
2023-01-12T12:39:28.020Z,1.27
2023-01-12T12:42:22.698Z,0.88
2023-01-12T12:45:18.804Z,2.50
2023-01-12T12:48:07.161Z,4.07
2023-01-12T12:50:40.306Z,2.03
2023-01-12T12:53:20.556Z,2.28
2023-01-12T12:55:51.531Z,1.42
2023-01-12T12:58:40.707Z,1.38
2023-01-12T13:01:44.668Z,1.85
2023-01-12T13:04:14.305Z,0.63
2023-01-12T13:06:45.800Z,1.17
2023-01-12T13:09:37.877Z,0.73
2023-01-12T13:12:34.292Z,1.80
2023-01-12T13:15:24.116Z,1.17
2023-01-12T13:17:53.791Z,1.13
2023-01-12T13:20:38.867Z,1.48
2023-01-12T13:23:39.878Z,1.15
2023-01-12T13:26:24.544Z,1.10
2023-01-12T13:29:25.452Z,1.30
2023-01-12T13:31:57.967Z,1.35
2023-01-12T13:34:46.188Z,2.77
2023-01-12T13:37:24.636Z,1.30
2023-01-12T13:39:58.591Z,1.25
2023-01-12T13:42:45.783Z,0.60
2023-01-12T13:45:17.899Z,0.57
2023-01-12T13:47:49.453Z,1.33
2023-01-12T13:50:21.622Z,1.48
2023-01-12T13:52:57.742Z,0.28
2023-01-12T13:55:28.042Z,1.10
2023-01-12T13:58:01.113Z,0.40
2023-01-12T14:00:32.142Z,0.90
2023-01-12T14:03:02.931Z,0.60
2023-01-12T14:05:41.168Z,0.57
2023-01-12T14:08:50.707Z,1.33
2023-01-12T14:11:45.987Z,1.05
2023-01-12T14:17:35.803Z,1.33
2023-01-12T14:20:15.048Z,2.05
2023-01-12T14:22:42.725Z,0.55
2023-01-12T14:25:16.356Z,0.60
2023-01-12T14:27:51.247Z,0.50
2023-01-12T14:30:19.019Z,0.65
2023-01-12T14:32:48.880Z,1.45
2023-01-12T14:35:20.255Z,0.68
2023-01-12T14:37:51.571Z,0.90
2023-01-12T14:40:22.910Z,0.28
2023-01-12T14:43:07.159Z,0.63
2023-01-12T14:45:53.073Z,1.17
2023-01-12T14:48:25.733Z,0.43
2023-01-12T14:51:03.145Z,2.28
2023-01-12T14:53:34.944Z,0.47
2023-01-12T14:56:15.267Z,1.08
2023-01-12T14:58:42.861Z,0.65
2023-01-12T15:01:11.002Z,2.05
2023-01-12T15:03:43.681Z,0.60
2023-01-12T15:06:16.908Z,1.83
2023-01-12T15:08:54.810Z,0.83
2023-01-12T15:11:35.116Z,0.82
2023-01-12T15:14:05.375Z,1.50
2023-01-12T15:16:50.323Z,0.50
2023-01-12T15:19:35.783Z,0.57
2023-01-12T15:22:27.259Z,0.95
2023-01-12T15:25:14.065Z,0.80
2023-01-12T15:27:41.654Z,1.23
2023-01-12T15:30:11.925Z,1.35
2023-01-12T15:32:47.772Z,0.75
2023-01-12T15:35:17.389Z,2.35
2023-01-12T15:37:46.314Z,0.43
2023-01-12T15:40:14.996Z,0.38
2023-01-12T15:42:42.655Z,0.82
2023-01-12T15:45:21.606Z,1.05
2023-01-12T15:47:49.215Z,1.90
2023-01-12T15:50:17.121Z,1.02
2023-01-12T15:52:45.997Z,1.85
2023-01-12T15:55:18.141Z,1.02
2023-01-12T15:57:47.057Z,0.38
2023-01-12T16:00:17.010Z,1.45
2023-01-12T16:02:47.664Z,0.70
2023-01-12T16:05:15.871Z,1.50
2023-01-12T16:07:43.875Z,1.33
2023-01-12T16:10:14.331Z,0.52
2023-01-12T16:12:42.264Z,1.30
2023-01-12T16:15:16.527Z,1.05
2023-01-12T16:17:44.069Z,1.65
2023-01-12T16:20:12.801Z,1.40
2023-01-12T16:22:40.418Z,4.13
2023-01-12T16:25:08.676Z,2.35
2023-01-12T16:27:38.128Z,0.98
2023-01-12T16:30:06.879Z,1.88
2023-01-12T16:32:34.439Z,1.17
2023-01-12T16:35:02.393Z,1.35
2023-01-12T16:37:33.114Z,0.47
2023-01-12T16:40:01.222Z,1.27
2023-01-12T16:42:29.097Z,0.38
2023-01-12T16:44:58.959Z,0.52
2023-01-12T16:47:26.529Z,0.75
2023-01-12T16:49:54.153Z,1.80
2023-01-12T16:52:22.781Z,1.00
2023-01-12T16:54:50.614Z,0.28
2023-01-12T16:57:19.112Z,0.80
2023-01-12T16:59:46.855Z,0.60
2023-01-12T17:02:17.319Z,1.20
2023-01-12T17:04:47.801Z,1.48
2023-01-12T17:07:15.643Z,1.52
2023-01-12T17:09:43.684Z,1.38
2023-01-12T17:12:11.490Z,1.33
2023-01-12T17:14:39.232Z,6.47
2023-01-12T17:17:08.936Z,2.67
2023-01-12T17:19:39.767Z,1.25
2023-01-12T17:22:08.316Z,1.02
2023-01-12T17:24:39.563Z,1.00
2023-01-12T17:27:08.341Z,0.73
2023-01-12T17:29:36.055Z,1.27
2023-01-12T17:32:05.153Z,2.80
2023-01-12T17:34:37.282Z,1.02
2023-01-12T17:37:08.692Z,0.30
2023-01-12T17:39:39.521Z,0.00
2023-01-12T17:42:24.843Z,1.30
2023-01-12T17:44:52.462Z,1.15
2023-01-12T17:47:20.043Z,1.20
2023-01-12T17:49:48.692Z,1.95
2023-01-12T17:52:18.025Z,1.52
2023-01-12T17:54:45.762Z,3.67
2023-01-12T17:57:13.453Z,0.73
2023-01-12T17:59:41.149Z,1.13
2023-01-12T18:02:08.910Z,1.20
2023-01-12T18:04:36.441Z,0.60
2023-01-12T18:07:04.110Z,1.30
2023-01-12T18:09:33.089Z,0.98
2023-01-12T18:12:00.773Z,1.63
2023-01-12T18:14:28.404Z,1.40
2023-01-12T18:16:57.314Z,0.93
2023-01-12T18:19:24.871Z,1.13
2023-01-12T18:21:52.477Z,0.20
2023-01-12T18:24:20.049Z,1.10
2023-01-12T18:26:50.718Z,1.90
2023-01-12T18:29:18.252Z,0.75
2023-01-12T18:31:47.183Z,1.20
2023-01-12T18:34:16.341Z,0.40
2023-01-12T18:36:43.885Z,0.47
2023-01-12T18:39:14.300Z,0.70
2023-01-12T18:41:59.527Z,0.75
2023-01-12T18:44:28.562Z,1.05
2023-01-12T18:47:16.538Z,1.25
2023-01-12T18:49:45.432Z,0.90
2023-01-12T18:52:32.030Z,2.20
2023-01-12T18:55:00.122Z,4.63
2023-01-12T18:57:29.680Z,1.58
2023-01-12T19:00:10.126Z,0.70
2023-01-12T19:02:37.745Z,1.00
2023-01-12T19:05:19.407Z,0.85
2023-01-12T19:08:24.213Z,1.83
2023-01-12T19:10:51.704Z,1.85
2023-01-12T19:13:36.623Z,0.90
2023-01-12T19:16:24.181Z,2.20
2023-01-12T19:18:51.931Z,1.65
2023-01-12T19:21:36.931Z,0.85
2023-01-12T19:24:22.402Z,1.58
2023-01-12T19:27:07.771Z,1.08
2023-01-12T19:29:35.408Z,1.95
2023-01-12T19:32:04.453Z,1.65
2023-01-12T19:34:31.963Z,1.45
2023-01-12T19:36:59.487Z,1.63
2023-01-12T19:39:46.346Z,0.77
2023-01-12T19:42:31.826Z,0.75
2023-01-12T19:44:59.424Z,0.93
2023-01-12T19:47:28.361Z,1.98
2023-01-12T19:49:55.885Z,1.20
2023-01-12T19:52:23.477Z,2.20
2023-01-12T19:54:51.025Z,1.15
2023-01-12T19:57:19.668Z,2.25
2023-01-12T19:59:48.249Z,2.42
2023-01-12T20:02:15.896Z,0.60
2023-01-12T20:04:44.810Z,1.40
2023-01-12T20:07:12.456Z,1.05
2023-01-12T20:09:39.989Z,1.20
2023-01-12T20:12:07.790Z,1.90
2023-01-12T20:14:35.335Z,3.25
2023-01-12T20:17:03.012Z,2.38
2023-01-12T20:19:30.807Z,1.02
2023-01-12T20:21:59.755Z,0.68
2023-01-12T20:24:27.417Z,1.35
2023-01-12T20:26:55.359Z,2.03
2023-01-12T20:29:23.477Z,2.88
2023-01-12T20:31:52.231Z,8.18
2023-01-12T20:34:20.092Z,2.40
2023-01-12T20:36:47.981Z,9.10
2023-01-12T20:39:17.392Z,4.88
2023-01-12T20:41:45.183Z,2.38
2023-01-12T20:44:17.038Z,3.10
2023-01-12T20:46:45.255Z,1.83
2023-01-12T20:49:12.869Z,2.92
2023-01-12T20:51:40.413Z,6.03
2023-01-12T20:54:08.010Z,1.52
2023-01-12T20:56:37.082Z,1.95
2023-01-12T20:59:05.683Z,3.42
2023-01-12T21:01:33.439Z,1.77
2023-01-12T21:04:01.036Z,0.85
2023-01-12T21:06:28.678Z,4.25
2023-01-12T21:08:56.281Z,2.35
2023-01-12T21:11:23.833Z,2.25
2023-01-12T21:13:52.696Z,3.05
2023-01-12T21:16:21.147Z,3.70
2023-01-12T21:18:49.074Z,1.38
2023-01-12T21:21:16.681Z,2.47
2023-01-12T21:23:44.401Z,2.35
2023-01-12T21:26:12.013Z,2.28
2023-01-12T21:28:41.026Z,1.42
2023-01-12T21:31:13.224Z,1.10
2023-01-12T21:33:40.872Z,1.33
2023-01-12T21:36:10.593Z,3.05
2023-01-12T21:38:38.587Z,1.60
2023-01-12T21:41:07.474Z,2.45
2023-01-12T21:43:34.596Z,4.60
2023-01-12T21:46:07.599Z,2.15
2023-01-12T21:48:37.213Z,1.17
2023-01-12T21:51:06.216Z,2.08
2023-01-12T21:53:34.288Z,4.05
2023-01-12T21:56:04.025Z,0.98
2023-01-12T21:58:33.929Z,4.03
2023-01-12T22:01:08.309Z,3.58
2023-01-12T22:03:37.486Z,2.35
2023-01-12T22:06:07.473Z,4.00
2023-01-12T22:08:35.605Z,2.40
2023-01-12T22:11:08.335Z,2.38
2023-01-12T22:13:36.388Z,2.72
2023-01-12T22:16:05.158Z,3.28
2023-01-12T22:18:32.805Z,3.53
2023-01-12T22:21:07.630Z,1.20
2023-01-12T22:23:39.063Z,1.33
2023-01-12T22:26:09.287Z,1.35
2023-01-12T22:28:38.901Z,3.63
2023-01-12T22:31:10.694Z,1.25
2023-01-12T22:33:39.023Z,4.18
2023-01-12T22:36:08.851Z,1.38
2023-01-12T22:38:36.456Z,3.53
2023-01-12T22:41:05.749Z,1.02
2023-01-12T22:43:38.618Z,4.00
2023-01-12T22:46:06.226Z,2.45
2023-01-12T22:48:33.835Z,4.07
2023-01-12T22:51:01.678Z,2.83
2023-01-12T22:53:32.061Z,2.40
2023-01-12T22:56:00.370Z,2.67
2023-01-12T22:58:28.185Z,1.60
2023-01-12T23:00:55.863Z,1.00
2023-01-12T23:03:23.509Z,0.73
2023-01-12T23:05:56.114Z,1.40
2023-01-12T23:08:24.246Z,0.77
2023-01-12T23:11:02.126Z,2.88
2023-01-12T23:13:29.686Z,1.83
2023-01-12T23:15:58.072Z,1.52
2023-01-12T23:18:28.536Z,1.38
2023-01-12T23:21:02.532Z,1.42
2023-01-12T23:23:30.511Z,2.33
2023-01-12T23:26:03.683Z,1.27
2023-01-12T23:28:35.521Z,1.50
2023-01-12T23:31:04.742Z,1.38
2023-01-12T23:33:32.528Z,2.53
2023-01-12T23:36:03.186Z,1.80
2023-01-12T23:38:30.943Z,2.28
2023-01-12T23:40:58.478Z,1.38
2023-01-12T23:43:27.689Z,1.10
2023-01-12T23:45:55.263Z,2.45
2023-01-12T23:48:23.681Z,1.30
2023-01-12T23:50:51.864Z,1.52
2023-01-12T23:53:19.361Z,0.95
2023-01-12T23:55:46.856Z,2.60
2023-01-12T23:58:14.373Z,2.63
